sensor_id;sensor_type;location;lat;lon;timestamp;pressure;altitude;pressure_sealevel;temperature;humidity
12775;BME280;6451;42.630;23.382;2024-03-25T00:01:13;93114.66;;;4.60;100.00
12775;BME280;6451;42.630;23.382;2024-03-25T00:03:44;93130.13;;;4.51;100.00
12775;BME280;6451;42.630;23.382;2024-03-25T00:06:12;93127.56;;;4.42;100.00
12775;BME280;6451;42.630;23.382;2024-03-25T00:08:40;93123.88;;;4.34;100.00
12775;BME280;6451;42.630;23.382;2024-03-25T00:11:08;93096.59;;;4.08;100.00
12775;BME280;6451;42.630;23.382;2024-03-25T00:13:36;93121.88;;;4.31;100.00
12775;BME280;6451;42.630;23.382;2024-03-25T00:16:04;93120.63;;;4.29;100.00
12775;BME280;6451;42.630;23.382;2024-03-25T00:18:31;93110.69;;;4.17;100.00
12775;BME280;6451;42.630;23.382;2024-03-25T00:20:59;93109.09;;;4.28;100.00
12775;BME280;6451;42.630;23.382;2024-03-25T00:23:25;93109.09;;;4.40;100.00
12775;BME280;6451;42.630;23.382;2024-03-25T00:25:54;92913.28;;;2.94;100.00
12775;BME280;6451;42.630;23.382;2024-03-25T00:28:21;93099.94;;;4.17;100.00
12775;BME280;6451;42.630;23.382;2024-03-25T00:30:50;93109.53;;;4.42;100.00
12775;BME280;6451;42.630;23.382;2024-03-25T00:33:16;93102.53;;;4.38;100.00
12775;BME280;6451;42.630;23.382;2024-03-25T00:35:43;93095.34;;;4.54;100.00
12775;BME280;6451;42.630;23.382;2024-03-25T00:38:11;93052.88;;;4.07;100.00
12775;BME280;6451;42.630;23.382;2024-03-25T00:40:38;93098.47;;;4.56;100.00
12775;BME280;6451;42.630;23.382;2024-03-25T00:43:07;93071.16;;;4.42;100.00
12775;BME280;6451;42.630;23.382;2024-03-25T00:45:34;93093.84;;;4.69;100.00
12775;BME280;6451;42.630;23.382;2024-03-25T00:48:00;93099.44;;;4.64;100.00
12775;BME280;6451;42.630;23.382;2024-03-25T00:50:30;93093.28;;;4.76;100.00
12775;BME280;6451;42.630;23.382;2024-03-25T00:52:58;93098.50;;;4.84;100.00
12775;BME280;6451;42.630;23.382;2024-03-25T00:55:25;93085.94;;;4.88;100.00
12775;BME280;6451;42.630;23.382;2024-03-25T00:57:52;93076.13;;;4.80;100.00
12775;BME280;6451;42.630;23.382;2024-03-25T01:00:22;93057.75;;;4.82;100.00
12775;BME280;6451;42.630;23.382;2024-03-25T01:02:49;93087.47;;;5.01;100.00
12775;BME280;6451;42.630;23.382;2024-03-25T01:05:17;93090.75;;;4.95;100.00
12775;BME280;6451;42.630;23.382;2024-03-25T01:07:44;93091.75;;;4.90;100.00
12775;BME280;6451;42.630;23.382;2024-03-25T01:10:12;93096.75;;;4.76;100.00
12775;BME280;6451;42.630;23.382;2024-03-25T01:12:40;93077.50;;;5.02;100.00
12775;BME280;6451;42.630;23.382;2024-03-25T01:15:08;93074.28;;;4.96;100.00
12775;BME280;6451;42.630;23.382;2024-03-25T01:17:37;93063.44;;;4.93;100.00
12775;BME280;6451;42.630;23.382;2024-03-25T01:20:10;93070.25;;;4.90;100.00
12775;BME280;6451;42.630;23.382;2024-03-25T01:22:36;93063.28;;;5.01;100.00
12775;BME280;6451;42.630;23.382;2024-03-25T01:25:06;93066.44;;;5.19;100.00
12775;BME280;6451;42.630;23.382;2024-03-25T01:27:32;93064.06;;;5.30;100.00
12775;BME280;6451;42.630;23.382;2024-03-25T01:30:01;93001.56;;;4.77;100.00
12775;BME280;6451;42.630;23.382;2024-03-25T01:32:29;93066.38;;;5.16;100.00
12775;BME280;6451;42.630;23.382;2024-03-25T01:34:59;93074.63;;;5.23;100.00
12775;BME280;6451;42.630;23.382;2024-03-25T01:37:24;93071.59;;;5.24;100.00
12775;BME280;6451;42.630;23.382;2024-03-25T01:39:51;92908.69;;;4.20;100.00
12775;BME280;6451;42.630;23.382;2024-03-25T01:42:17;93070.25;;;5.46;100.00
12775;BME280;6451;42.630;23.382;2024-03-25T01:44:45;93077.88;;;5.44;100.00
12775;BME280;6451;42.630;23.382;2024-03-25T01:47:12;93076.66;;;5.42;100.00
12775;BME280;6451;42.630;23.382;2024-03-25T01:49:41;93037.25;;;5.34;100.00
12775;BME280;6451;42.630;23.382;2024-03-25T01:52:09;93043.06;;;5.36;100.00
12775;BME280;6451;42.630;23.382;2024-03-25T01:54:37;93072.53;;;5.60;100.00
12775;BME280;6451;42.630;23.382;2024-03-25T01:57:05;93056.09;;;5.49;100.00
12775;BME280;6451;42.630;23.382;2024-03-25T01:59:32;93070.16;;;5.58;100.00
12775;BME280;6451;42.630;23.382;2024-03-25T02:01:59;93066.28;;;5.28;100.00
12775;BME280;6451;42.630;23.382;2024-03-25T02:04:26;93088.97;;;5.43;100.00
12775;BME280;6451;42.630;23.382;2024-03-25T02:06:54;93081.19;;;5.10;100.00
12775;BME280;6451;42.630;23.382;2024-03-25T02:09:29;93101.00;;;5.05;100.00
12775;BME280;6451;42.630;23.382;2024-03-25T02:11:58;93106.88;;;4.95;100.00
12775;BME280;6451;42.630;23.382;2024-03-25T02:14:25;93105.06;;;4.99;100.00
12775;BME280;6451;42.630;23.382;2024-03-25T02:16:53;93101.94;;;4.97;100.00
12775;BME280;6451;42.630;23.382;2024-03-25T02:19:21;93101.72;;;4.90;100.00
12775;BME280;6451;42.630;23.382;2024-03-25T02:21:49;93104.03;;;5.03;100.00
12775;BME280;6451;42.630;23.382;2024-03-25T02:24:21;93077.63;;;4.65;100.00
12775;BME280;6451;42.630;23.382;2024-03-25T02:26:52;93079.88;;;4.63;100.00
12775;BME280;6451;42.630;23.382;2024-03-25T02:29:19;93054.50;;;4.49;100.00
12775;BME280;6451;42.630;23.382;2024-03-25T02:31:45;93055.19;;;4.33;100.00
12775;BME280;6451;42.630;23.382;2024-03-25T02:34:15;93090.06;;;4.58;100.00
12775;BME280;6451;42.630;23.382;2024-03-25T02:36:45;93036.41;;;4.21;100.00
12775;BME280;6451;42.630;23.382;2024-03-25T02:39:12;93094.78;;;4.49;100.00
12775;BME280;6451;42.630;23.382;2024-03-25T02:41:39;93099.22;;;4.69;100.00
12775;BME280;6451;42.630;23.382;2024-03-25T02:44:09;93062.00;;;4.43;100.00
12775;BME280;6451;42.630;23.382;2024-03-25T02:46:35;93089.47;;;4.77;100.00
12775;BME280;6451;42.630;23.382;2024-03-25T02:49:03;93084.63;;;4.82;100.00
12775;BME280;6451;42.630;23.382;2024-03-25T02:51:28;93095.38;;;4.82;100.00
12775;BME280;6451;42.630;23.382;2024-03-25T02:53:55;93105.19;;;4.90;100.00
12775;BME280;6451;42.630;23.382;2024-03-25T02:56:21;93114.94;;;4.95;100.00
12775;BME280;6451;42.630;23.382;2024-03-25T02:58:48;93107.78;;;4.99;100.00
12775;BME280;6451;42.630;23.382;2024-03-25T03:01:16;93102.97;;;4.92;100.00
12775;BME280;6451;42.630;23.382;2024-03-25T03:03:43;93112.69;;;4.97;100.00
12775;BME280;6451;42.630;23.382;2024-03-25T03:06:09;93131.19;;;4.98;100.00
12775;BME280;6451;42.630;23.382;2024-03-25T03:08:39;93119.59;;;5.10;100.00
12775;BME280;6451;42.630;23.382;2024-03-25T03:11:04;93118.53;;;4.99;100.00
12775;BME280;6451;42.630;23.382;2024-03-25T03:13:32;93129.19;;;4.83;100.00
12775;BME280;6451;42.630;23.382;2024-03-25T03:15:58;93128.22;;;5.03;100.00
12775;BME280;6451;42.630;23.382;2024-03-25T03:18:27;93133.88;;;4.98;100.00
12775;BME280;6451;42.630;23.382;2024-03-25T03:20:53;93137.91;;;4.80;100.00
12775;BME280;6451;42.630;23.382;2024-03-25T03:23:22;93127.81;;;4.89;100.00
12775;BME280;6451;42.630;23.382;2024-03-25T03:25:48;93125.69;;;4.95;100.00
12775;BME280;6451;42.630;23.382;2024-03-25T03:28:17;93140.25;;;4.94;100.00
12775;BME280;6451;42.630;23.382;2024-03-25T03:30:47;93150.06;;;5.14;100.00
12775;BME280;6451;42.630;23.382;2024-03-25T03:33:17;93153.97;;;5.17;100.00
12775;BME280;6451;42.630;23.382;2024-03-25T03:35:45;93086.06;;;4.92;100.00
12775;BME280;6451;42.630;23.382;2024-03-25T03:38:12;93156.47;;;5.38;100.00
12775;BME280;6451;42.630;23.382;2024-03-25T03:40:38;93124.97;;;5.10;100.00
12775;BME280;6451;42.630;23.382;2024-03-25T03:43:08;93149.78;;;5.32;100.00
12775;BME280;6451;42.630;23.382;2024-03-25T03:45:36;93156.47;;;5.38;100.00
12775;BME280;6451;42.630;23.382;2024-03-25T03:48:03;93159.09;;;5.50;100.00
12775;BME280;6451;42.630;23.382;2024-03-25T03:50:29;93165.19;;;5.47;100.00
12775;BME280;6451;42.630;23.382;2024-03-25T03:53:00;93160.34;;;5.52;100.00
12775;BME280;6451;42.630;23.382;2024-03-25T03:55:26;93166.78;;;5.64;100.00
12775;BME280;6451;42.630;23.382;2024-03-25T03:57:53;93155.78;;;5.69;100.00
12775;BME280;6451;42.630;23.382;2024-03-25T04:00:19;93130.56;;;5.45;100.00
12775;BME280;6451;42.630;23.382;2024-03-25T04:02:49;93174.09;;;5.79;100.00
12775;BME280;6451;42.630;23.382;2024-03-25T04:05:15;93114.38;;;5.29;100.00
12775;BME280;6451;42.630;23.382;2024-03-25T04:07:43;93198.91;;;5.72;100.00
12775;BME280;6451;42.630;23.382;2024-03-25T04:10:11;93202.41;;;5.73;100.00
12775;BME280;6451;42.630;23.382;2024-03-25T04:12:42;92957.75;;;3.93;100.00
12775;BME280;6451;42.630;23.382;2024-03-25T04:15:08;93218.00;;;5.67;100.00
12775;BME280;6451;42.630;23.382;2024-03-25T04:17:43;93205.78;;;5.70;100.00
12775;BME280;6451;42.630;23.382;2024-03-25T04:20:13;93182.03;;;5.59;100.00
12775;BME280;6451;42.630;23.382;2024-03-25T04:22:41;93176.28;;;5.45;100.00
12775;BME280;6451;42.630;23.382;2024-03-25T04:25:11;93136.22;;;5.00;100.00
12775;BME280;6451;42.630;23.382;2024-03-25T04:27:39;93217.94;;;5.51;100.00
12775;BME280;6451;42.630;23.382;2024-03-25T04:30:07;93212.56;;;5.51;100.00
12775;BME280;6451;42.630;23.382;2024-03-25T04:32:35;93151.75;;;5.07;100.00
12775;BME280;6451;42.630;23.382;2024-03-25T04:35:02;93226.63;;;5.45;100.00
12775;BME280;6451;42.630;23.382;2024-03-25T04:37:31;93212.25;;;5.53;100.00
12775;BME280;6451;42.630;23.382;2024-03-25T04:39:57;93173.91;;;5.16;100.00
12775;BME280;6451;42.630;23.382;2024-03-25T04:42:28;93251.75;;;5.65;100.00
12775;BME280;6451;42.630;23.382;2024-03-25T04:44:55;93260.75;;;5.56;100.00
12775;BME280;6451;42.630;23.382;2024-03-25T04:47:23;93194.44;;;4.96;100.00
12775;BME280;6451;42.630;23.382;2024-03-25T04:49:51;93194.09;;;5.10;100.00
12775;BME280;6451;42.630;23.382;2024-03-25T04:52:17;93138.00;;;4.31;100.00
12775;BME280;6451;42.630;23.382;2024-03-25T04:54:45;93225.69;;;5.00;100.00
12775;BME280;6451;42.630;23.382;2024-03-25T04:57:13;93262.16;;;5.26;100.00
12775;BME280;6451;42.630;23.382;2024-03-25T04:59:41;93276.06;;;5.28;100.00
12775;BME280;6451;42.630;23.382;2024-03-25T05:02:07;93196.25;;;4.80;100.00
12775;BME280;6451;42.630;23.382;2024-03-25T05:04:33;93281.41;;;5.40;100.00
12775;BME280;6451;42.630;23.382;2024-03-25T05:06:59;93278.38;;;5.42;100.00
12775;BME280;6451;42.630;23.382;2024-03-25T05:09:25;93263.97;;;5.10;100.00
12775;BME280;6451;42.630;23.382;2024-03-25T05:11:51;93179.81;;;4.57;100.00
12775;BME280;6451;42.630;23.382;2024-03-25T05:14:20;93230.16;;;5.09;100.00
12775;BME280;6451;42.630;23.382;2024-03-25T05:16:48;93089.09;;;4.13;100.00
12775;BME280;6451;42.630;23.382;2024-03-25T05:19:17;93182.06;;;4.55;100.00
12775;BME280;6451;42.630;23.382;2024-03-25T05:21:49;93162.69;;;4.49;100.00
12775;BME280;6451;42.630;23.382;2024-03-25T05:24:16;93283.81;;;5.29;100.00
12775;BME280;6451;42.630;23.382;2024-03-25T05:26:45;93231.38;;;5.11;100.00
12775;BME280;6451;42.630;23.382;2024-03-25T05:29:11;93307.19;;;5.53;100.00
12775;BME280;6451;42.630;23.382;2024-03-25T05:31:39;93105.00;;;4.31;100.00
12775;BME280;6451;42.630;23.382;2024-03-25T05:34:21;93286.88;;;5.56;100.00
12775;BME280;6451;42.630;23.382;2024-03-25T05:36:48;93217.84;;;4.95;100.00
12775;BME280;6451;42.630;23.382;2024-03-25T05:39:14;93271.84;;;5.15;100.00
12775;BME280;6451;42.630;23.382;2024-03-25T05:41:40;93309.22;;;5.32;100.00
12775;BME280;6451;42.630;23.382;2024-03-25T05:44:07;93315.81;;;5.47;100.00
12775;BME280;6451;42.630;23.382;2024-03-25T05:46:33;93314.78;;;5.64;100.00
12775;BME280;6451;42.630;23.382;2024-03-25T05:49:01;93309.47;;;5.79;100.00
12775;BME280;6451;42.630;23.382;2024-03-25T05:51:29;93304.94;;;5.55;100.00
12775;BME280;6451;42.630;23.382;2024-03-25T05:53:58;93319.03;;;5.65;100.00
12775;BME280;6451;42.630;23.382;2024-03-25T05:56:27;93322.16;;;5.67;100.00
12775;BME280;6451;42.630;23.382;2024-03-25T05:58:54;93186.66;;;4.54;100.00
12775;BME280;6451;42.630;23.382;2024-03-25T06:01:20;93316.38;;;5.52;100.00
12775;BME280;6451;42.630;23.382;2024-03-25T06:03:47;93352.88;;;5.78;100.00
12775;BME280;6451;42.630;23.382;2024-03-25T06:06:13;93348.63;;;5.77;100.00
12775;BME280;6451;42.630;23.382;2024-03-25T06:08:41;93352.69;;;5.58;100.00
12775;BME280;6451;42.630;23.382;2024-03-25T06:11:07;93353.72;;;5.42;100.00
12775;BME280;6451;42.630;23.382;2024-03-25T06:13:34;93348.88;;;5.47;100.00
12775;BME280;6451;42.630;23.382;2024-03-25T06:16:01;93352.25;;;5.32;100.00
12775;BME280;6451;42.630;23.382;2024-03-25T06:18:27;93360.78;;;5.46;100.00
12775;BME280;6451;42.630;23.382;2024-03-25T06:20:53;93364.25;;;5.47;100.00
12775;BME280;6451;42.630;23.382;2024-03-25T06:23:23;93348.66;;;5.40;100.00
12775;BME280;6451;42.630;23.382;2024-03-25T06:25:52;93388.34;;;5.31;100.00
12775;BME280;6451;42.630;23.382;2024-03-25T06:28:18;93387.09;;;5.65;100.00
12775;BME280;6451;42.630;23.382;2024-03-25T06:30:45;93378.22;;;5.65;100.00
12775;BME280;6451;42.630;23.382;2024-03-25T06:33:32;93385.47;;;5.89;100.00
12775;BME280;6451;42.630;23.382;2024-03-25T06:36:17;93384.84;;;5.92;100.00
12775;BME280;6451;42.630;23.382;2024-03-25T06:38:46;93374.38;;;6.02;100.00
12775;BME280;6451;42.630;23.382;2024-03-25T06:41:14;93378.56;;;6.00;100.00
12775;BME280;6451;42.630;23.382;2024-03-25T06:43:41;93389.03;;;6.17;100.00
12775;BME280;6451;42.630;23.382;2024-03-25T06:46:07;93402.22;;;6.34;100.00
12775;BME280;6451;42.630;23.382;2024-03-25T06:48:33;93389.38;;;6.44;100.00
12775;BME280;6451;42.630;23.382;2024-03-25T06:51:01;93399.69;;;6.54;100.00
12775;BME280;6451;42.630;23.382;2024-03-25T06:53:28;93405.72;;;6.63;100.00
12775;BME280;6451;42.630;23.382;2024-03-25T06:55:55;93382.84;;;6.29;100.00
12775;BME280;6451;42.630;23.382;2024-03-25T06:58:25;93409.88;;;6.32;100.00
12775;BME280;6451;42.630;23.382;2024-03-25T07:00:51;93404.97;;;6.22;100.00
12775;BME280;6451;42.630;23.382;2024-03-25T07:03:18;93417.91;;;6.45;100.00
12775;BME280;6451;42.630;23.382;2024-03-25T07:05:44;93392.00;;;6.40;100.00
12775;BME280;6451;42.630;23.382;2024-03-25T07:08:11;93396.00;;;6.46;100.00
12775;BME280;6451;42.630;23.382;2024-03-25T07:10:41;93426.25;;;6.39;100.00
12775;BME280;6451;42.630;23.382;2024-03-25T07:13:09;93408.06;;;6.36;100.00
12775;BME280;6451;42.630;23.382;2024-03-25T07:15:36;93427.81;;;6.40;100.00
12775;BME280;6451;42.630;23.382;2024-03-25T07:18:04;93412.78;;;6.67;100.00
12775;BME280;6451;42.630;23.382;2024-03-25T07:20:32;93418.50;;;6.66;100.00
12775;BME280;6451;42.630;23.382;2024-03-25T07:23:00;93407.94;;;6.89;100.00
12775;BME280;6451;42.630;23.382;2024-03-25T07:25:31;93435.53;;;6.98;100.00
12775;BME280;6451;42.630;23.382;2024-03-25T07:27:59;93426.50;;;7.06;100.00
12775;BME280;6451;42.630;23.382;2024-03-25T07:30:25;93433.53;;;7.11;100.00
12775;BME280;6451;42.630;23.382;2024-03-25T07:32:55;93428.94;;;7.27;100.00
12775;BME280;6451;42.630;23.382;2024-03-25T07:35:22;93423.13;;;7.41;100.00
12775;BME280;6451;42.630;23.382;2024-03-25T07:37:48;93435.16;;;7.59;100.00
12775;BME280;6451;42.630;23.382;2024-03-25T07:40:14;93418.69;;;7.17;100.00
12775;BME280;6451;42.630;23.382;2024-03-25T07:42:40;93433.31;;;7.47;100.00
12775;BME280;6451;42.630;23.382;2024-03-25T07:45:08;93431.81;;;7.66;100.00
12775;BME280;6451;42.630;23.382;2024-03-25T07:47:34;93436.44;;;7.34;100.00
12775;BME280;6451;42.630;23.382;2024-03-25T07:50:02;93438.53;;;7.56;100.00
12775;BME280;6451;42.630;23.382;2024-03-25T07:52:29;93431.31;;;7.29;100.00
12775;BME280;6451;42.630;23.382;2024-03-25T07:54:55;93412.09;;;7.30;100.00
12775;BME280;6451;42.630;23.382;2024-03-25T07:57:21;93442.63;;;7.66;100.00
12775;BME280;6451;42.630;23.382;2024-03-25T07:59:48;93450.72;;;7.50;100.00
12775;BME280;6451;42.630;23.382;2024-03-25T08:02:14;93443.94;;;7.40;100.00
12775;BME280;6451;42.630;23.382;2024-03-25T08:04:41;93434.03;;;7.44;100.00
12775;BME280;6451;42.630;23.382;2024-03-25T08:07:09;93438.00;;;7.66;100.00
12775;BME280;6451;42.630;23.382;2024-03-25T08:09:35;93437.06;;;7.74;100.00
12775;BME280;6451;42.630;23.382;2024-03-25T08:12:01;93415.81;;;7.57;100.00
12775;BME280;6451;42.630;23.382;2024-03-25T08:14:28;93450.00;;;8.00;100.00
12775;BME280;6451;42.630;23.382;2024-03-25T08:16:53;93458.19;;;7.88;100.00
12775;BME280;6451;42.630;23.382;2024-03-25T08:19:21;93459.50;;;7.94;100.00
12775;BME280;6451;42.630;23.382;2024-03-25T08:21:47;93457.16;;;7.93;100.00
12775;BME280;6451;42.630;23.382;2024-03-25T08:24:15;93460.69;;;7.97;100.00
12775;BME280;6451;42.630;23.382;2024-03-25T08:26:42;93449.28;;;8.03;100.00
12775;BME280;6451;42.630;23.382;2024-03-25T08:29:09;93458.69;;;8.09;100.00
12775;BME280;6451;42.630;23.382;2024-03-25T08:31:35;93448.75;;;8.14;100.00
12775;BME280;6451;42.630;23.382;2024-03-25T08:34:03;93451.63;;;8.21;100.00
12775;BME280;6451;42.630;23.382;2024-03-25T08:36:30;93442.22;;;8.15;100.00
12775;BME280;6451;42.630;23.382;2024-03-25T08:38:57;93458.03;;;8.32;100.00
12775;BME280;6451;42.630;23.382;2024-03-25T08:41:24;93478.16;;;8.34;100.00
12775;BME280;6451;42.630;23.382;2024-03-25T08:43:51;93480.56;;;8.04;100.00
12775;BME280;6451;42.630;23.382;2024-03-25T08:46:17;93455.50;;;7.72;100.00
12775;BME280;6451;42.630;23.382;2024-03-25T08:48:45;93474.41;;;7.72;100.00
12775;BME280;6451;42.630;23.382;2024-03-25T08:51:11;93474.75;;;7.87;100.00
12775;BME280;6451;42.630;23.382;2024-03-25T08:53:37;93472.91;;;8.06;100.00
12775;BME280;6451;42.630;23.382;2024-03-25T08:56:05;93458.75;;;8.29;100.00
12775;BME280;6451;42.630;23.382;2024-03-25T08:58:32;93478.88;;;8.31;100.00
12775;BME280;6451;42.630;23.382;2024-03-25T09:00:59;93484.63;;;8.46;100.00
12775;BME280;6451;42.630;23.382;2024-03-25T09:03:25;93472.88;;;8.57;99.47
12775;BME280;6451;42.630;23.382;2024-03-25T09:05:51;93479.16;;;8.81;96.63
12775;BME280;6451;42.630;23.382;2024-03-25T09:08:17;93494.19;;;8.78;94.89
12775;BME280;6451;42.630;23.382;2024-03-25T09:10:44;93493.81;;;8.60;95.17
12775;BME280;6451;42.630;23.382;2024-03-25T09:13:32;93485.97;;;8.36;96.53
12775;BME280;6451;42.630;23.382;2024-03-25T09:15:59;93477.03;;;8.51;97.77
12775;BME280;6451;42.630;23.382;2024-03-25T09:18:26;93475.75;;;8.29;97.54
12775;BME280;6451;42.630;23.382;2024-03-25T09:20:52;93459.13;;;8.12;95.82
12775;BME280;6451;42.630;23.382;2024-03-25T09:23:21;93481.25;;;8.17;96.43
12775;BME280;6451;42.630;23.382;2024-03-25T09:25:54;93504.22;;;8.27;98.89
12775;BME280;6451;42.630;23.382;2024-03-25T09:28:20;93509.31;;;8.44;99.97
12775;BME280;6451;42.630;23.382;2024-03-25T09:30:49;93459.88;;;8.44;98.81
12775;BME280;6451;42.630;23.382;2024-03-25T09:33:15;93500.66;;;8.93;94.54
12775;BME280;6451;42.630;23.382;2024-03-25T09:35:41;93491.03;;;8.57;91.76
12775;BME280;6451;42.630;23.382;2024-03-25T09:38:08;93515.28;;;8.53;92.56
12775;BME280;6451;42.630;23.382;2024-03-25T09:40:38;93507.81;;;8.47;93.35
12775;BME280;6451;42.630;23.382;2024-03-25T09:43:09;93505.78;;;8.59;94.39
12775;BME280;6451;42.630;23.382;2024-03-25T09:45:39;93508.84;;;8.77;93.89
12775;BME280;6451;42.630;23.382;2024-03-25T09:48:07;93487.41;;;9.27;93.02
12775;BME280;6451;42.630;23.382;2024-03-25T09:50:35;93487.09;;;9.74;87.14
12775;BME280;6451;42.630;23.382;2024-03-25T09:53:03;93465.06;;;9.53;86.74
12775;BME280;6451;42.630;23.382;2024-03-25T09:55:29;93477.75;;;9.48;84.10
12775;BME280;6451;42.630;23.382;2024-03-25T09:57:56;93510.78;;;9.15;81.94
12775;BME280;6451;42.630;23.382;2024-03-25T10:00:24;93443.84;;;8.74;83.69
12775;BME280;6451;42.630;23.382;2024-03-25T10:02:50;93514.69;;;8.99;84.62
12775;BME280;6451;42.630;23.382;2024-03-25T10:05:19;93491.69;;;8.70;88.86
12775;BME280;6451;42.630;23.382;2024-03-25T10:07:45;93516.69;;;9.02;90.47
12775;BME280;6451;42.630;23.382;2024-03-25T10:10:11;93457.06;;;9.17;85.81
12775;BME280;6451;42.630;23.382;2024-03-25T10:12:36;93478.59;;;8.91;86.02
12775;BME280;6451;42.630;23.382;2024-03-25T10:15:06;93463.03;;;9.27;84.81
12775;BME280;6451;42.630;23.382;2024-03-25T10:17:35;93532.22;;;9.43;81.10
12775;BME280;6451;42.630;23.382;2024-03-25T10:20:04;93513.38;;;9.73;82.29
12775;BME280;6451;42.630;23.382;2024-03-25T10:22:40;93508.41;;;9.75;77.07
12775;BME280;6451;42.630;23.382;2024-03-25T10:25:07;93491.34;;;9.10;74.97
12775;BME280;6451;42.630;23.382;2024-03-25T10:27:33;93500.72;;;9.16;77.61
12775;BME280;6451;42.630;23.382;2024-03-25T10:30:02;93503.03;;;9.56;79.91
12775;BME280;6451;42.630;23.382;2024-03-25T10:32:32;93463.19;;;9.80;76.35
12775;BME280;6451;42.630;23.382;2024-03-25T10:34:58;93457.06;;;9.60;76.71
12775;BME280;6451;42.630;23.382;2024-03-25T10:37:25;93487.31;;;9.88;72.91
12775;BME280;6451;42.630;23.382;2024-03-25T10:39:56;93492.66;;;10.08;73.06
12775;BME280;6451;42.630;23.382;2024-03-25T10:42:26;93402.53;;;9.61;71.43
12775;BME280;6451;42.630;23.382;2024-03-25T10:44:52;93455.81;;;10.56;69.78
12775;BME280;6451;42.630;23.382;2024-03-25T10:47:20;93487.50;;;10.48;67.36
12775;BME280;6451;42.630;23.382;2024-03-25T10:49:49;93508.19;;;10.11;64.88
12775;BME280;6451;42.630;23.382;2024-03-25T10:52:18;93511.94;;;9.80;64.22
12775;BME280;6451;42.630;23.382;2024-03-25T10:54:50;93493.28;;;9.97;65.24
12775;BME280;6451;42.630;23.382;2024-03-25T10:57:20;93498.50;;;9.64;65.07
12775;BME280;6451;42.630;23.382;2024-03-25T10:59:47;93511.50;;;9.55;64.07
12775;BME280;6451;42.630;23.382;2024-03-25T11:02:15;93492.06;;;9.95;63.62
12775;BME280;6451;42.630;23.382;2024-03-25T11:04:42;93450.81;;;10.05;61.57
12775;BME280;6451;42.630;23.382;2024-03-25T11:07:10;93505.50;;;10.60;60.71
12775;BME280;6451;42.630;23.382;2024-03-25T11:09:37;93494.31;;;10.65;60.07
12775;BME280;6451;42.630;23.382;2024-03-25T11:12:05;93499.34;;;10.14;56.42
12775;BME280;6451;42.630;23.382;2024-03-25T11:14:33;93492.56;;;9.78;58.09
12775;BME280;6451;42.630;23.382;2024-03-25T11:16:59;93490.34;;;9.83;59.80
12775;BME280;6451;42.630;23.382;2024-03-25T11:19:28;93486.22;;;10.16;60.12
12775;BME280;6451;42.630;23.382;2024-03-25T11:22:06;93466.69;;;10.29;62.80
12775;BME280;6451;42.630;23.382;2024-03-25T11:24:34;93476.19;;;9.70;64.20
12775;BME280;6451;42.630;23.382;2024-03-25T11:27:01;93459.19;;;9.73;65.03
12775;BME280;6451;42.630;23.382;2024-03-25T11:29:26;93457.75;;;9.80;64.49
12775;BME280;6451;42.630;23.382;2024-03-25T11:31:55;93491.69;;;9.73;64.93
12775;BME280;6451;42.630;23.382;2024-03-25T11:34:26;93495.69;;;10.02;66.05
12775;BME280;6451;42.630;23.382;2024-03-25T11:36:52;93491.00;;;10.22;66.39
12775;BME280;6451;42.630;23.382;2024-03-25T11:39:18;93495.56;;;9.72;71.22
12775;BME280;6451;42.630;23.382;2024-03-25T11:41:44;93523.06;;;9.52;72.83
12775;BME280;6451;42.630;23.382;2024-03-25T11:44:13;93494.94;;;9.37;73.65
12775;BME280;6451;42.630;23.382;2024-03-25T11:46:39;93517.44;;;9.41;75.53
12775;BME280;6451;42.630;23.382;2024-03-25T11:49:11;93506.56;;;9.37;74.45
12775;BME280;6451;42.630;23.382;2024-03-25T11:51:38;93490.91;;;8.69;75.23
12775;BME280;6451;42.630;23.382;2024-03-25T11:54:04;93453.91;;;8.93;77.10
12775;BME280;6451;42.630;23.382;2024-03-25T11:56:32;93495.19;;;9.09;76.73
12775;BME280;6451;42.630;23.382;2024-03-25T11:58:59;93490.84;;;8.85;80.03
12775;BME280;6451;42.630;23.382;2024-03-25T12:01:26;93519.09;;;9.26;79.92
12775;BME280;6451;42.630;23.382;2024-03-25T12:03:53;93500.84;;;9.65;79.32
12775;BME280;6451;42.630;23.382;2024-03-25T12:06:20;93436.84;;;9.54;77.04
12775;BME280;6451;42.630;23.382;2024-03-25T12:08:47;93466.38;;;9.85;76.57
12775;BME280;6451;42.630;23.382;2024-03-25T12:11:31;93465.66;;;9.65;77.24
12775;BME280;6451;42.630;23.382;2024-03-25T12:13:57;93506.31;;;9.46;75.73
12775;BME280;6451;42.630;23.382;2024-03-25T12:16:24;93473.56;;;9.51;75.33
12775;BME280;6451;42.630;23.382;2024-03-25T12:18:52;93498.50;;;10.10;72.34
12775;BME280;6451;42.630;23.382;2024-03-25T12:21:20;93500.13;;;10.14;70.49
12775;BME280;6451;42.630;23.382;2024-03-25T12:23:48;93491.81;;;9.58;68.82
12775;BME280;6451;42.630;23.382;2024-03-25T12:26:14;93514.72;;;9.41;70.72
12775;BME280;6451;42.630;23.382;2024-03-25T12:28:40;93524.81;;;9.21;72.30
12775;BME280;6451;42.630;23.382;2024-03-25T12:31:08;93491.38;;;9.33;72.44
12775;BME280;6451;42.630;23.382;2024-03-25T12:33:40;93498.13;;;9.42;70.98
12775;BME280;6451;42.630;23.382;2024-03-25T12:36:06;93523.50;;;9.34;70.71
12775;BME280;6451;42.630;23.382;2024-03-25T12:38:34;93521.56;;;9.35;72.71
12775;BME280;6451;42.630;23.382;2024-03-25T12:41:03;93541.25;;;9.32;72.69
12775;BME280;6451;42.630;23.382;2024-03-25T12:43:31;93515.59;;;9.45;71.82
12775;BME280;6451;42.630;23.382;2024-03-25T12:45:57;93528.28;;;9.41;68.86
12775;BME280;6451;42.630;23.382;2024-03-25T12:48:23;93521.44;;;9.70;67.21
12775;BME280;6451;42.630;23.382;2024-03-25T12:50:50;93523.31;;;9.66;66.58
12775;BME280;6451;42.630;23.382;2024-03-25T12:53:18;93459.03;;;9.40;67.01
12775;BME280;6451;42.630;23.382;2024-03-25T12:55:49;93494.38;;;9.93;67.49
12775;BME280;6451;42.630;23.382;2024-03-25T12:58:15;93517.06;;;10.08;64.08
12775;BME280;6451;42.630;23.382;2024-03-25T13:00:41;93515.63;;;10.37;65.31
12775;BME280;6451;42.630;23.382;2024-03-25T13:03:08;93524.94;;;10.39;65.72
12775;BME280;6451;42.630;23.382;2024-03-25T13:05:34;93526.88;;;10.16;63.19